Time;durP1;ratioP1;P1;durP2;ratioP2;P2;SDS_P1;SDS_P2;PMS_P1;PMS_P2;Temp;Humidity;BMP_temperature;BMP_pressure;BME280_temperature;BME280_humidity;BME280_pressure;Samples;Min_cycle;Max_cycle;Signal;HPM_P1;HPM_P2
2024/01/07 05:22:33;;;;;;;11.45;5.55;;;;;;;3.56;100.00;99906.72;5089511;28;20117;-34
2024/01/07 05:24:58;;;;;;;7.88;4.88;;;;;;;3.49;100.00;99907.25;5089315;28;20036;-33
2024/01/07 05:27:23;;;;;;;12.15;6.10;;;;;;;3.60;100.00;99903.69;5089044;28;20090;-36
2024/01/07 05:29:49;;;;;;;13.35;6.75;;;;;;;3.69;100.00;99905.47;5089283;28;20039;-33
2024/01/07 05:32:14;;;;;;;10.20;5.88;;;;;;;3.77;100.00;99892.44;5089347;28;20399;-34
2024/01/07 05:34:40;;;;;;;9.00;5.22;;;;;;;3.56;100.00;99902.28;5089114;28;20040;-34
2024/01/07 05:37:06;;;;;;;15.32;6.65;;;;;;;3.64;100.00;99907.69;5088890;28;20032;-35
2024/01/07 05:39:31;;;;;;;14.80;5.30;;;;;;;3.60;100.00;99908.94;5089242;28;20036;-33
2024/01/07 05:41:56;;;;;;;13.85;7.45;;;;;;;3.61;100.00;99909.78;5089002;28;20036;-33
2024/01/07 05:44:22;;;;;;;16.77;6.93;;;;;;;3.62;100.00;99916.72;5089097;28;20507;-35
2024/01/07 05:46:47;;;;;;;12.40;7.13;;;;;;;3.60;100.00;99914.22;5088494;28;20047;-33
2024/01/07 05:49:12;;;;;;;10.82;6.30;;;;;;;3.64;100.00;99910.31;5088996;28;20416;-34
2024/01/07 05:51:39;;;;;;;13.23;7.07;;;;;;;3.75;100.00;99918.09;5088885;28;20119;-35
2024/01/07 05:54:05;;;;;;;11.15;6.15;;;;;;;3.70;100.00;99925.59;5088840;28;20044;-33
2024/01/07 05:56:30;;;;;;;12.10;6.28;;;;;;;3.71;100.00;99929.03;5088401;28;20073;-35
2024/01/07 05:58:55;;;;;;;10.93;5.75;;;;;;;3.70;100.00;99927.38;5088835;28;20051;-33
2024/01/07 06:01:21;;;;;;;15.27;7.28;;;;;;;3.59;100.00;99927.53;5088692;28;20047;-33
2024/01/07 06:03:47;;;;;;;11.32;6.47;;;;;;;3.83;100.00;99930.59;5088684;28;20044;-34
2024/01/07 06:06:14;;;;;;;17.83;7.63;;;;;;;3.71;100.00;99931.69;5088330;28;20047;-34
2024/01/07 06:08:40;;;;;;;13.98;7.00;;;;;;;3.77;100.00;99933.78;5088585;28;20040;-33
2024/01/07 06:11:05;;;;;;;12.90;7.40;;;;;;;3.72;100.00;99936.00;5088540;28;20051;-33
2024/01/07 06:13:30;;;;;;;14.93;7.57;;;;;;;3.67;100.00;99938.22;5088729;28;20041;-34
2024/01/07 06:15:56;;;;;;;15.15;7.20;;;;;;;3.58;100.00;99934.56;5088218;28;20048;-32
2024/01/07 06:18:21;;;;;;;13.32;6.65;;;;;;;3.68;100.00;99931.97;5088366;28;20044;-33
2024/01/07 06:20:46;;;;;;;12.18;6.75;;;;;;;3.83;100.00;99940.28;5088381;28;20029;-35
2024/01/07 06:23:12;;;;;;;11.52;5.50;;;;;;;3.69;100.00;99939.72;5088329;28;20496;-33
2024/01/07 06:25:39;;;;;;;11.85;6.20;;;;;;;3.65;100.00;99948.03;5088140;28;20032;-33
2024/01/07 06:28:04;;;;;;;13.63;7.13;;;;;;;3.81;100.00;99943.06;5087986;28;20036;-32
2024/01/07 06:30:30;;;;;;;10.75;5.53;;;;;;;3.66;100.00;99947.09;5088181;28;20490;-34
2024/01/07 06:32:55;;;;;;;10.60;5.32;;;;;;;3.59;100.00;99959.97;5080217;28;20036;-33
2024/01/07 06:35:21;;;;;;;12.77;7.30;;;;;;;3.70;100.00;99956.38;5074606;28;20044;-39
2024/01/07 06:37:46;;;;;;;14.88;6.80;;;;;;;3.80;100.00;99955.41;5073800;28;20040;-33
2024/01/07 06:40:12;;;;;;;11.00;6.05;;;;;;;3.71;100.00;99953.59;5074527;28;20060;-33
2024/01/07 06:42:37;;;;;;;11.60;5.63;;;;;;;3.58;100.00;99966.19;5074462;28;20058;-35
2024/01/07 06:45:04;;;;;;;14.70;7.13;;;;;;;3.73;100.00;99962.22;5074461;28;20039;-35
2024/01/07 06:47:29;;;;;;;13.50;6.53;;;;;;;3.81;100.00;99967.63;5074267;28;20058;-35
2024/01/07 06:49:54;;;;;;;9.30;5.18;;;;;;;3.72;100.00;99970.25;5074375;28;20033;-33
2024/01/07 06:52:20;;;;;;;12.02;6.18;;;;;;;3.73;100.00;99977.19;5074258;28;20446;-33
2024/01/07 06:54:46;;;;;;;18.48;6.20;;;;;;;3.91;100.00;99978.19;5074266;28;20044;-43
2024/01/07 06:57:11;;;;;;;8.80;4.57;;;;;;;3.59;100.00;99985.47;5072643;28;20043;-35
2024/01/07 06:59:37;;;;;;;11.68;6.03;;;;;;;3.86;100.00;99983.03;5074163;28;20043;-33
2024/01/07 07:02:02;;;;;;;13.10;5.85;;;;;;;3.56;100.00;99991.81;5073951;28;20146;-34
2024/01/07 07:04:28;;;;;;;11.40;6.35;;;;;;;3.62;100.00;99987.81;5073912;28;20063;-34
2024/01/07 07:06:53;;;;;;;10.90;5.65;;;;;;;3.58;100.00;99989.06;5073773;28;20036;-33
2024/01/07 07:09:18;;;;;;;14.27;6.20;;;;;;;3.62;100.00;99995.72;5073969;28;20094;-33
2024/01/07 07:11:44;;;;;;;12.60;5.88;;;;;;;3.64;100.00;100006.94;5062670;28;20044;-34
2024/01/07 07:14:10;;;;;;;6.70;4.50;;;;;;;3.58;100.00;100005.69;5053968;28;20071;-34
2024/01/07 07:16:35;;;;;;;12.23;5.63;;;;;;;3.73;100.00;100006.16;5053536;28;20407;-33
2024/01/07 07:19:01;;;;;;;10.57;6.38;;;;;;;3.74;100.00;100006.03;5053792;28;20040;-33
2024/01/07 07:21:27;;;;;;;11.55;5.38;;;;;;;7.12;100.00;100002.03;5055365;28;20514;-37
2024/01/07 07:23:52;;;;;;;15.18;6.68;;;;;;;12.35;100.00;100002.97;5073409;28;20408;-32
2024/01/07 07:26:18;;;;;;;12.43;6.40;;;;;;;13.89;94.95;100005.66;5073116;28;20044;-32
2024/01/07 07:28:43;;;;;;;12.57;5.65;;;;;;;14.05;86.06;100010.69;5072032;28;20047;-36
2024/01/07 07:31:11;;;;;;;8.45;5.28;;;;;;;14.17;84.93;100017.09;5073151;28;20048;-34
2024/01/07 07:33:38;;;;;;;9.98;5.28;;;;;;;13.62;73.53;100012.75;5073429;28;20511;-33
2024/01/07 07:36:04;;;;;;;9.47;5.57;;;;;;;6.18;100.00;100016.69;5073064;28;20036;-35
2024/01/07 07:38:29;;;;;;;6.93;5.03;;;;;;;4.58;100.00;100019.53;5073064;28;20654;-32
2024/01/07 07:40:55;;;;;;;13.32;6.88;;;;;;;4.39;100.00;100029.28;5073158;28;20093;-33
2024/01/07 07:43:20;;;;;;;10.77;5.68;;;;;;;4.13;100.00;100032.44;5072669;28;20041;-33
2024/01/07 07:45:46;;;;;;;10.23;5.20;;;;;;;4.08;100.00;100039.94;5071309;28;20116;-35
2024/01/07 07:48:11;;;;;;;12.90;5.45;;;;;;;4.00;100.00;100026.59;5071412;28;20458;-33
2024/01/07 07:50:37;;;;;;;13.75;6.72;;;;;;;3.88;100.00;100033.78;5072227;28;20433;-33
2024/01/07 07:53:02;;;;;;;15.20;6.95;;;;;;;4.07;100.00;100031.19;5072705;28;20546;-34
2024/01/07 07:55:28;;;;;;;10.82;6.03;;;;;;;3.92;100.00;100035.19;5072779;28;20033;-34
2024/01/07 07:57:54;;;;;;;10.48;5.63;;;;;;;3.81;100.00;100033.50;5072635;28;20040;-35
2024/01/07 08:00:19;;;;;;;15.02;7.22;;;;;;;4.00;100.00;100034.50;5072629;28;20198;-33
2024/01/07 08:02:45;;;;;;;14.65;6.35;;;;;;;3.81;100.00;100038.75;5073818;28;20121;-34
2024/01/07 08:05:11;;;;;;;13.82;6.72;;;;;;;3.95;100.00;100039.34;5074824;28;20040;-35
2024/01/07 08:07:36;;;;;;;12.23;6.07;;;;;;;3.87;100.00;100037.41;5084351;28;20040;-34
2024/01/07 08:10:02;;;;;;;7.65;4.68;;;;;;;3.81;100.00;100048.47;5069850;28;20036;-32
2024/01/07 08:12:28;;;;;;;14.25;7.07;;;;;;;3.79;100.00;100042.50;5076962;28;20043;-32
2024/01/07 08:14:53;;;;;;;12.30;5.80;;;;;;;3.88;100.00;100049.59;5065540;28;20040;-32
2024/01/07 08:17:19;;;;;;;10.55;5.38;;;;;;;4.03;100.00;100047.41;5071679;28;20039;-33
2024/01/07 08:19:44;;;;;;;12.38;6.03;;;;;;;3.97;100.00;100047.94;5072616;28;20051;-33
2024/01/07 08:22:09;;;;;;;9.63;5.10;;;;;;;3.95;100.00;100056.00;5072257;28;20036;-32
2024/01/07 08:24:35;;;;;;;10.82;5.70;;;;;;;4.12;100.00;100053.69;5077702;28;20481;-33
2024/01/07 08:27:02;;;;;;;10.40;5.50;;;;;;;4.12;100.00;100057.16;5091824;28;20083;-33
2024/01/07 08:29:28;;;;;;;12.00;6.35;;;;;;;4.18;100.00;100055.78;5092758;28;20040;-32
2024/01/07 08:31:53;;;;;;;10.02;5.80;;;;;;;4.33;100.00;100059.66;5092652;28;20040;-33
2024/01/07 08:34:19;;;;;;;11.63;5.00;;;;;;;3.94;100.00;100066.69;5092745;28;20044;-34
2024/01/07 08:36:44;;;;;;;11.52;6.53;;;;;;;3.98;100.00;100068.09;5092288;28;20058;-32
2024/01/07 08:39:10;;;;;;;10.30;5.38;;;;;;;3.96;100.00;100073.47;5092462;28;20120;-32
2024/01/07 08:41:36;;;;;;;11.27;6.15;;;;;;;4.07;100.00;100073.38;5092410;28;20042;-32
2024/01/07 08:44:02;;;;;;;12.75;6.50;;;;;;;4.01;100.00;100078.34;5092470;28;20402;-34
2024/01/07 08:46:27;;;;;;;12.75;6.75;;;;;;;4.04;100.00;100083.31;5092078;28;20036;-34
2024/01/07 08:48:52;;;;;;;13.70;6.45;;;;;;;4.28;100.00;100080.34;5092288;28;20553;-32
2024/01/07 08:51:18;;;;;;;10.65;6.03;;;;;;;4.26;100.00;100082.28;5091430;28;20062;-33
2024/01/07 08:53:43;;;;;;;13.48;6.85;;;;;;;4.20;100.00;100075.75;5092055;28;20119;-34
2024/01/07 08:56:09;;;;;;;15.55;6.28;;;;;;;4.30;100.00;100081.00;5090090;28;20376;-35
2024/01/07 08:58:34;;;;;;;11.35;6.22;;;;;;;4.22;100.00;100091.41;5091933;28;20052;-32
2024/01/07 09:01:00;;;;;;;12.77;6.20;;;;;;;4.27;100.00;100092.69;5091988;28;20032;-32
2024/01/07 09:03:25;;;;;;;11.98;6.20;;;;;;;4.19;100.00;100095.19;5083830;28;20423;-32
2024/01/07 09:05:51;;;;;;;12.68;6.20;;;;;;;4.22;100.00;100091.41;5051908;28;20048;-33
2024/01/07 09:08:16;;;;;;;11.73;6.25;;;;;;;4.28;100.00;100098.78;5051567;28;20043;-33
2024/01/07 09:10:42;;;;;;;10.35;6.25;;;;;;;4.13;100.00;100102.78;5051664;28;20063;-32
2024/01/07 09:13:07;;;;;;;12.57;7.38;;;;;;;4.26;100.00;100104.22;5069784;28;20033;-32
2024/01/07 09:15:32;;;;;;;10.68;6.10;;;;;;;4.38;100.00;100112.84;5071591;28;20729;-33
2024/01/07 09:17:58;;;;;;;11.25;5.65;;;;;;;4.27;100.00;100108.50;5071404;28;20047;-33
2024/01/07 09:20:23;;;;;;;11.30;5.32;;;;;;;4.42;100.00;100111.56;5071440;28;20407;-34
2024/01/07 09:22:49;;;;;;;14.82;5.47;;;;;;;4.31;100.00;100109.09;5071731;28;20075;-33
2024/01/07 09:25:14;;;;;;;13.70;6.03;;;;;;;4.33;100.00;100113.25;5071610;28;20119;-33
2024/01/07 09:27:40;;;;;;;6.97;3.33;;;;;;;4.22;100.00;100109.88;5071379;28;20095;-34
2024/01/07 09:30:05;;;;;;;11.60;5.80;;;;;;;4.46;100.00;100112.16;5071589;28;20040;-32
2024/01/07 09:32:31;;;;;;;10.77;6.00;;;;;;;4.32;100.00;100116.03;5071586;28;20033;-32
2024/01/07 09:34:57;;;;;;;12.55;6.75;;;;;;;4.51;100.00;100121.31;5071286;28;20400;-34
2024/01/07 09:37:23;;;;;;;12.13;5.30;;;;;;;4.35;100.00;100116.56;5071254;28;20059;-32
2024/01/07 09:39:49;;;;;;;9.68;5.15;;;;;;;4.26;100.00;100125.31;5071577;28;20036;-34
2024/01/07 09:42:18;;;;;;;12.52;5.75;;;;;;;4.25;100.00;100120.16;5071409;28;20045;-33
2024/01/07 09:44:44;;;;;;;13.40;6.57;;;;;;;4.28;100.00;100122.53;5071243;28;20032;-33
2024/01/07 09:47:11;;;;;;;12.50;6.60;;;;;;;4.23;100.00;100122.91;5070931;28;20036;-34
2024/01/07 09:49:38;;;;;;;11.77;6.03;;;;;;;4.49;100.00;100128.50;5071149;28;20044;-33
2024/01/07 09:52:04;;;;;;;9.07;5.50;;;;;;;4.66;100.00;100131.47;5071017;28;20035;-33
2024/01/07 09:54:31;;;;;;;10.15;5.35;;;;;;;4.62;100.00;100118.53;5071107;28;20059;-35
2024/01/07 09:57:01;;;;;;;11.35;6.82;;;;;;;4.58;100.00;100122.44;5069602;28;20044;-34
2024/01/07 09:59:30;;;;;;;10.02;5.97;;;;;;;4.67;100.00;100133.97;5070576;28;20067;-32
2024/01/07 10:01:57;;;;;;;9.82;6.05;;;;;;;4.54;100.00;100128.13;5069170;28;20071;-33
2024/01/07 10:04:27;;;;;;;10.97;5.63;;;;;;;4.74;100.00;100137.72;5071041;28;20044;-33
2024/01/07 10:06:53;;;;;;;11.57;6.53;;;;;;;5.20;100.00;100132.69;5070779;28;20107;-32
2024/01/07 10:09:21;;;;;;;12.00;5.88;;;;;;;4.89;100.00;100141.63;5074547;28;20126;-33
2024/01/07 10:11:47;;;;;;;10.15;6.00;;;;;;;4.77;100.00;100141.91;5074666;28;20033;-32
2024/01/07 10:14:13;;;;;;;10.13;6.05;;;;;;;4.67;100.00;100139.25;5074847;28;20037;-33
2024/01/07 10:16:39;;;;;;;11.30;6.22;;;;;;;4.67;100.00;100138.41;5074373;28;20123;-33
2024/01/07 10:19:04;;;;;;;10.60;6.32;;;;;;;4.53;100.00;100137.84;5074755;28;20079;-34
2024/01/07 10:21:30;;;;;;;12.50;6.32;;;;;;;4.68;100.00;100142.69;5074609;28;20054;-32
2024/01/07 10:24:09;;;;;;;12.88;6.55;;;;;;;5.00;100.00;100135.34;5074755;28;20123;-32
2024/01/07 10:26:35;;;;;;;11.27;6.07;;;;;;;5.12;100.00;100146.59;5074442;28;20680;-32
2024/01/07 10:29:00;;;;;;;11.25;6.47;;;;;;;5.12;100.00;100142.16;5074679;28;20036;-32
2024/01/07 10:31:26;;;;;;;9.65;6.00;;;;;;;5.25;100.00;100138.38;5074622;28;20365;-32
2024/01/07 10:33:52;;;;;;;10.18;5.18;;;;;;;5.16;100.00;100145.34;5074571;28;20078;-33
2024/01/07 10:36:20;;;;;;;11.77;6.35;;;;;;;5.37;100.00;100140.72;5074135;28;20075;-33
2024/01/07 10:38:45;;;;;;;10.93;6.13;;;;;;;5.29;100.00;100139.78;5074454;28;20044;-33
2024/01/07 10:41:11;;;;;;;7.70;4.85;;;;;;;5.24;100.00;100134.09;5074042;28;20028;-39
2024/01/07 10:43:39;;;;;;;10.73;5.88;;;;;;;5.19;100.00;100142.41;5065528;28;20411;-38
2024/01/07 10:46:04;;;;;;;6.03;4.10;;;;;;;5.17;100.00;100139.94;5063923;28;20040;-36
2024/01/07 10:48:38;;;;;;;9.75;4.63;;;;;;;5.15;100.00;100136.59;5064484;28;20025;-36
2024/01/07 10:51:04;;;;;;;6.18;3.55;;;;;;;5.06;100.00;100152.44;5063298;28;20020;-35
2024/01/07 10:53:36;;;;;;;7.10;3.97;;;;;;;5.18;100.00;100148.69;5065694;28;20041;-33
2024/01/07 10:56:10;;;;;;;7.68;3.90;;;;;;;5.07;100.00;100147.00;5062996;28;20029;-32
2024/01/07 10:58:37;;;;;;;8.27;4.07;;;;;;;5.17;100.00;100145.22;5062786;28;20045;-34
2024/01/07 11:01:04;;;;;;;8.90;3.97;;;;;;;5.02;100.00;100153.69;5064473;28;20101;-33
2024/01/07 11:04:06;;;;;;;8.20;4.47;;;;;;;4.95;100.00;100156.03;5062843;28;20146;-33
2024/01/07 11:06:42;;;;;;;5.72;3.80;;;;;;;5.05;100.00;100148.97;5063828;28;20043;-35
2024/01/07 11:09:37;;;;;;;7.80;3.75;;;;;;;4.79;100.00;100158.41;5063591;28;20031;-34
2024/01/07 11:12:04;;;;;;;4.43;3.08;;;;;;;4.32;100.00;100171.41;5062973;28;20025;-32
2024/01/07 11:14:39;;;;;;;5.80;3.35;;;;;;;4.24;100.00;100165.97;5063220;28;20488;-33
2024/01/07 11:17:08;;;;;;;5.15;2.88;;;;;;;4.24;100.00;100165.97;5062963;28;20115;-33
2024/01/07 11:19:37;;;;;;;5.85;2.75;;;;;;;4.14;100.00;100175.63;5062386;28;20051;-33
2024/01/07 11:22:25;;;;;;;5.07;3.10;;;;;;;4.17;100.00;100167.44;5062480;28;20499;-33
2024/01/07 11:24:56;;;;;;;3.67;2.38;;;;;;;4.06;100.00;100173.69;5076745;28;20064;-34
2024/01/07 11:27:22;;;;;;;5.28;2.83;;;;;;;4.06;100.00;100169.22;5073238;28;20106;-33
2024/01/07 11:30:00;;;;;;;6.10;3.92;;;;;;;4.31;100.00;100170.56;5073596;28;20098;-34
2024/01/07 11:32:29;;;;;;;4.25;3.00;;;;;;;4.11;100.00;100173.25;5073595;28;20160;-33
2024/01/07 11:34:56;;;;;;;4.40;3.17;;;;;;;4.31;100.00;100172.38;5073542;28;20403;-33
2024/01/07 11:37:22;;;;;;;4.23;2.33;;;;;;;4.23;100.00;100174.81;5073330;28;20579;-32
2024/01/07 11:39:55;;;;;;;2.05;1.38;;;;;;;4.11;100.00;100178.53;5073536;28;20705;-34
2024/01/07 11:42:22;;;;;;;4.35;2.75;;;;;;;4.54;100.00;100178.25;5073265;28;20143;-33
2024/01/07 11:44:54;;;;;;;4.07;3.00;;;;;;;4.50;99.92;100177.69;5073379;28;20063;-32
2024/01/07 11:47:22;;;;;;;2.13;1.92;;;;;;;4.56;99.18;100179.78;5073038;28;20029;-34
2024/01/07 11:49:49;;;;;;;4.00;2.73;;;;;;;4.56;98.20;100182.44;5073336;28;20493;-32
2024/01/07 11:52:15;;;;;;;3.90;2.85;;;;;;;4.90;99.58;100180.25;5073240;28;20274;-34
2024/01/07 11:54:41;;;;;;;4.45;2.92;;;;;;;4.74;99.45;100173.81;5073082;28;20060;-33
2024/01/07 11:57:07;;;;;;;4.20;2.75;;;;;;;4.60;98.82;100181.16;5072867;28;20033;-33
2024/01/07 11:59:36;;;;;;;4.72;3.25;;;;;;;4.49;97.57;100178.63;5073192;28;20032;-33
2024/01/07 12:02:04;;;;;;;4.53;2.65;;;;;;;4.70;99.84;100181.19;5072942;28;20032;-33
2024/01/07 12:04:33;;;;;;;5.40;2.97;;;;;;;4.58;96.63;100185.75;5072963;28;20044;-33
2024/01/07 12:06:59;;;;;;;4.13;2.63;;;;;;;4.35;97.62;100181.66;5064539;28;20063;-33
2024/01/07 12:09:26;;;;;;;4.95;2.97;;;;;;;4.31;97.40;100182.91;5065277;28;20037;-32
2024/01/07 12:11:52;;;;;;;3.10;2.60;;;;;;;4.34;96.94;100186.09;5062341;28;20028;-32
2024/01/07 12:14:19;;;;;;;4.28;2.63;;;;;;;4.50;95.23;100180.34;5061029;28;20287;-32
2024/01/07 12:16:45;;;;;;;5.10;1.83;;;;;;;4.15;93.61;100196.59;5062416;28;20036;-36
2024/01/07 12:19:10;;;;;;;5.85;3.50;;;;;;;4.32;93.07;100185.41;5062717;28;20532;-36
2024/01/07 12:21:37;;;;;;;5.20;3.33;;;;;;;4.28;92.75;100185.81;5060895;28;20068;-36
2024/01/07 12:24:03;;;;;;;5.15;2.63;;;;;;;4.12;91.61;100180.22;5062504;28;20415;-36
2024/01/07 12:26:30;;;;;;;2.03;1.80;;;;;;;4.11;90.34;100191.72;5060405;28;20475;-36
2024/01/07 12:29:03;;;;;;;3.92;1.92;;;;;;;4.12;91.02;100188.97;5063165;28;20044;-38
2024/01/07 12:31:33;;;;;;;4.03;2.65;;;;;;;4.29;92.59;100185.66;5061589;28;20432;-37
2024/01/07 12:33:58;;;;;;;3.00;2.28;;;;;;;4.34;91.82;100187.91;5060923;28;20493;-36
2024/01/07 12:36:24;;;;;;;3.22;2.75;;;;;;;4.27;93.61;100187.63;5062087;28;20036;-36
2024/01/07 12:38:53;;;;;;;2.80;2.38;;;;;;;4.33;91.86;100188.88;5060212;28;20032;-36
2024/01/07 12:41:19;;;;;;;4.60;3.45;;;;;;;4.23;91.67;100193.28;5054781;28;20141;-35
2024/01/07 12:43:45;;;;;;;3.10;2.25;;;;;;;4.14;90.30;100189.66;5052288;28;20036;-35
2024/01/07 12:46:10;;;;;;;3.80;2.40;;;;;;;4.36;92.51;100191.25;5051909;28;20082;-36
2024/01/07 12:48:35;;;;;;;3.88;2.58;;;;;;;4.43;91.14;100197.63;5052001;28;20041;-35
2024/01/07 12:51:01;;;;;;;5.05;2.40;;;;;;;4.18;90.21;100193.69;5052098;28;20037;-36
2024/01/07 12:53:27;;;;;;;3.08;2.60;;;;;;;4.14;92.52;100200.19;5052089;28;20024;-36
2024/01/07 12:55:53;;;;;;;4.57;3.45;;;;;;;4.15;92.57;100195.75;5051929;28;20686;-36
2024/01/07 12:58:18;;;;;;;2.65;2.10;;;;;;;4.11;90.17;100210.16;5051852;28;20041;-36
2024/01/07 13:00:44;;;;;;;2.03;1.75;;;;;;;3.91;92.54;100212.75;5054830;28;20041;-35
2024/01/07 13:03:17;;;;;;;3.13;2.30;;;;;;;4.08;92.42;100212.09;5055401;28;20042;-36
2024/01/07 13:05:46;;;;;;;3.00;2.42;;;;;;;3.91;91.98;100215.38;5071537;28;20113;-35
2024/01/07 13:08:12;;;;;;;3.20;2.35;;;;;;;3.95;93.07;100213.28;5071293;28;20032;-34
2024/01/07 13:10:38;;;;;;;3.90;3.00;;;;;;;4.08;93.69;100213.91;5071893;28;20135;-35
2024/01/07 13:13:03;;;;;;;4.80;2.88;;;;;;;4.26;93.85;100227.31;5071783;28;20516;-36
2024/01/07 13:15:29;;;;;;;3.80;2.63;;;;;;;3.94;94.13;100217.72;5078818;28;20274;-36
2024/01/07 13:17:54;;;;;;;3.97;2.97;;;;;;;3.93;92.53;100220.50;5071096;28;20036;-36
2024/01/07 13:20:20;;;;;;;3.05;2.20;;;;;;;3.83;91.91;100220.44;5071540;28;20038;-36
2024/01/07 13:22:46;;;;;;;3.50;2.28;;;;;;;3.91;91.40;100223.28;5071543;28;20492;-36
2024/01/07 13:25:12;;;;;;;3.25;2.78;;;;;;;3.91;92.62;100218.00;5070436;28;20070;-36
2024/01/07 13:27:37;;;;;;;3.67;2.88;;;;;;;3.92;89.98;100230.22;5069713;28;20036;-36
2024/01/07 13:30:03;;;;;;;2.67;1.63;;;;;;;3.86;92.25;100229.91;5069810;28;20060;-36
2024/01/07 13:32:29;;;;;;;3.45;2.25;;;;;;;3.78;90.98;100225.25;5071508;28;20476;-36
2024/01/07 13:34:54;;;;;;;4.85;2.80;;;;;;;3.77;90.52;100232.34;5070269;28;20045;-35
2024/01/07 13:37:20;;;;;;;2.97;2.20;;;;;;;3.94;90.62;100241.47;5070748;28;20036;-35
2024/01/07 13:39:45;;;;;;;4.13;2.65;;;;;;;3.87;89.92;100236.84;5071367;28;20043;-36
2024/01/07 13:42:12;;;;;;;3.95;2.45;;;;;;;3.91;90.50;100252.28;5071738;28;20527;-36
2024/01/07 13:44:46;;;;;;;3.97;2.50;;;;;;;3.91;90.38;100227.69;5074122;28;20037;-35
2024/01/07 13:47:13;;;;;;;4.35;2.65;;;;;;;3.84;90.31;100237.09;5073469;28;20038;-35
2024/01/07 13:49:39;;;;;;;4.63;3.38;;;;;;;3.90;89.97;100237.41;5067730;28;20036;-36
2024/01/07 13:52:05;;;;;;;4.72;3.08;;;;;;;3.85;89.67;100244.88;5073412;28;20032;-35
2024/01/07 13:54:30;;;;;;;4.00;2.80;;;;;;;3.58;88.58;100248.00;5068048;28;20041;-35
2024/01/07 13:56:55;;;;;;;4.15;3.30;;;;;;;3.65;90.08;100249.19;5072854;28;20128;-36
2024/01/07 13:59:23;;;;;;;3.28;2.00;;;;;;;3.47;89.26;100259.47;5068453;28;20055;-36
2024/01/07 14:01:49;;;;;;;2.30;1.90;;;;;;;3.42;90.23;100256.38;5074237;28;20562;-35
2024/01/07 14:04:15;;;;;;;3.85;2.88;;;;;;;3.41;91.08;100259.97;5075049;28;20119;-36
2024/01/07 14:06:40;;;;;;;3.08;2.45;;;;;;;3.35;92.08;100259.66;5073033;28;20044;-35
2024/01/07 14:09:08;;;;;;;3.10;2.47;;;;;;;3.36;91.79;100266.56;5075062;28;20028;-35
2024/01/07 14:11:34;;;;;;;5.22;3.88;;;;;;;3.54;90.64;100262.44;5075343;28;20116;-31
2024/01/07 14:14:01;;;;;;;5.05;3.47;;;;;;;3.37;91.10;100282.25;5074032;28;20055;-31
2024/01/07 14:16:27;;;;;;;2.58;1.73;;;;;;;3.22;88.70;100276.44;5073465;28;20127;-32
2024/01/07 14:18:52;;;;;;;3.80;2.65;;;;;;;3.17;89.75;100285.69;5073692;28;20119;-40
2024/01/07 14:21:18;;;;;;;3.33;2.25;;;;;;;3.21;89.93;100287.94;5074314;28;20442;-36
2024/01/07 14:23:43;;;;;;;4.68;3.40;;;;;;;3.14;91.52;100299.94;5074390;28;20040;-36
2024/01/07 14:26:09;;;;;;;3.55;1.90;;;;;;;3.07;90.09;100290.03;5074429;28;20037;-37
2024/01/07 14:28:35;;;;;;;5.53;3.00;;;;;;;3.12;88.76;100299.19;5074842;28;20485;-33
2024/01/07 14:31:01;;;;;;;3.65;2.78;;;;;;;3.08;88.19;100295.16;5074857;28;20132;-38
2024/01/07 14:33:27;;;;;;;4.82;3.22;;;;;;;3.17;89.33;100298.84;5074438;28;20119;-38
2024/01/07 14:35:52;;;;;;;4.93;3.15;;;;;;;2.97;90.00;100310.97;5074519;28;20178;-33
2024/01/07 14:38:18;;;;;;;5.07;3.15;;;;;;;3.12;89.06;100314.16;5074253;28;20039;-33
2024/01/07 14:40:46;;;;;;;4.68;3.15;;;;;;;2.94;90.81;100311.22;5074510;28;20032;-37
2024/01/07 14:43:11;;;;;;;;;;;;;;;2.91;91.45;100316.72;5074792;28;20077;-37
2024/01/07 14:45:37;;;;;;;5.18;3.00;;;;;;;2.91;91.46;100316.72;5072968;28;19955;-36
2024/01/07 14:48:02;;;;;;;5.00;3.50;;;;;;;2.94;90.28;100321.75;5074127;28;20043;-33
2024/01/07 14:50:28;;;;;;;4.60;2.75;;;;;;;2.86;91.42;100332.03;5074361;28;20086;-34
2024/01/07 14:52:53;;;;;;;5.63;3.58;;;;;;;2.83;91.52;100325.22;5073967;28;20101;-36
2024/01/07 14:55:19;;;;;;;5.22;3.15;;;;;;;2.85;91.11;100328.56;5074105;28;20060;-33
2024/01/07 14:57:44;;;;;;;5.75;3.78;;;;;;;2.82;92.90;100333.25;5073940;28;20474;-34
2024/01/07 15:00:10;;;;;;;3.90;3.10;;;;;;;2.85;92.69;100331.19;5074067;28;20040;-36
2024/01/07 15:02:35;;;;;;;4.97;3.38;;;;;;;2.98;91.02;100333.69;5074034;28;20037;-34
2024/01/07 15:05:03;;;;;;;4.05;2.80;;;;;;;2.72;89.09;100335.75;5074107;28;20036;-34
2024/01/07 15:07:28;;;;;;;3.97;2.47;;;;;;;2.69;89.81;100341.28;5073716;28;20408;-37
2024/01/07 15:09:53;;;;;;;4.15;3.00;;;;;;;2.75;87.35;100353.94;5074060;28;20033;-38
2024/01/07 15:12:19;;;;;;;3.63;2.65;;;;;;;2.59;88.09;100351.66;5074007;28;20040;-34
2024/01/07 15:14:45;;;;;;;3.42;2.38;;;;;;;2.59;87.80;100350.81;5073840;28;20119;-33
2024/01/07 15:17:10;;;;;;;4.18;2.67;;;;;;;2.50;88.44;100348.94;5073263;28;20040;-34
2024/01/07 15:19:35;;;;;;;4.20;3.08;;;;;;;2.51;89.98;100353.22;5073195;28;20049;-37
2024/01/07 15:22:01;;;;;;;4.45;2.63;;;;;;;2.51;89.31;100356.69;5073043;28;20048;-34
2024/01/07 15:24:27;;;;;;;5.15;3.53;;;;;;;2.48;89.23;100362.19;5073288;28;20037;-33
2024/01/07 15:26:52;;;;;;;3.63;2.92;;;;;;;2.59;88.13;100363.97;5072622;28;20437;-35
2024/01/07 15:29:19;;;;;;;5.25;3.33;;;;;;;2.44;88.91;100381.78;5073115;28;20032;-38
2024/01/07 15:31:45;;;;;;;5.60;3.00;;;;;;;2.45;90.00;100373.78;5073419;28;20407;-35
2024/01/07 15:34:11;;;;;;;4.85;3.28;;;;;;;2.39;90.42;100383.91;5073516;28;20392;-36
2024/01/07 15:36:37;;;;;;;3.47;2.60;;;;;;;2.36;89.73;100390.25;5073099;28;20043;-33
2024/01/07 15:39:02;;;;;;;6.28;3.30;;;;;;;2.48;90.15;100388.50;5073410;28;20041;-36
2024/01/07 15:41:28;;;;;;;5.70;2.88;;;;;;;2.27;90.33;100385.69;5073368;28;20039;-36
2024/01/07 15:43:53;;;;;;;5.90;3.53;;;;;;;2.30;91.00;100396.00;5073287;28;20037;-34
2024/01/07 15:46:19;;;;;;;5.20;3.47;;;;;;;2.26;90.30;100388.44;5073046;28;20708;-35
2024/01/07 15:48:44;;;;;;;4.75;3.30;;;;;;;2.19;89.95;100398.59;5073153;28;20129;-34
2024/01/07 15:51:10;;;;;;;4.00;2.83;;;;;;;2.22;89.03;100406.25;5073055;28;20029;-38
2024/01/07 15:53:35;;;;;;;3.50;3.20;;;;;;;2.20;89.94;100402.06;5073135;28;20468;-36
2024/01/07 15:56:02;;;;;;;3.33;2.67;;;;;;;2.25;89.98;100413.91;5072829;28;20048;-38
2024/01/07 15:58:33;;;;;;;5.40;3.67;;;;;;;2.28;88.70;100408.41;5072952;28;20090;-33
2024/01/07 16:01:03;;;;;;;4.70;3.03;;;;;;;2.24;88.64;100416.66;5072974;28;20040;-35
2024/01/07 16:03:32;;;;;;;3.90;2.97;;;;;;;2.33;89.99;100411.50;5072956;28;20593;-35
2024/01/07 16:05:57;;;;;;;4.30;2.95;;;;;;;2.24;88.34;100411.38;5071816;28;20040;-35
2024/01/07 16:08:26;;;;;;;4.63;2.78;;;;;;;2.27;86.56;100430.38;5072765;28;20051;-38
2024/01/07 16:10:51;;;;;;;4.80;2.65;;;;;;;2.32;86.37;100424.78;5072832;28;20036;-34
2024/01/07 16:13:17;;;;;;;5.03;2.17;;;;;;;2.24;88.00;100435.88;5072742;28;20036;-39
2024/01/07 16:15:43;;;;;;;5.15;2.88;;;;;;;2.23;87.53;100438.63;5072575;28;20052;-36
2024/01/07 16:18:08;;;;;;;3.83;2.95;;;;;;;2.19;87.84;100440.63;5072463;28;20032;-37
2024/01/07 16:20:34;;;;;;;4.90;3.05;;;;;;;2.23;87.65;100447.34;5072480;28;20066;-37
2024/01/07 16:23:00;;;;;;;5.45;3.30;;;;;;;2.19;88.48;100451.16;5072720;28;20032;-35
2024/01/07 16:25:26;;;;;;;4.63;2.83;;;;;;;2.05;89.17;100456.59;5072488;28;20116;-35
2024/01/07 16:27:51;;;;;;;4.78;2.67;;;;;;;2.16;92.59;100459.28;5072277;28;20054;-34
2024/01/07 16:30:17;;;;;;;6.00;3.50;;;;;;;2.05;95.63;100462.69;5072465;28;20090;-37
2024/01/07 16:32:44;;;;;;;4.88;2.78;;;;;;;1.95;97.67;100473.97;5072482;28;20453;-34
2024/01/07 16:35:09;;;;;;;7.07;3.80;;;;;;;2.11;97.51;100479.81;5072292;28;20450;-35
2024/01/07 16:37:35;;;;;;;3.53;2.60;;;;;;;1.81;95.32;100475.84;5071963;28;20040;-35
2024/01/07 16:40:00;;;;;;;2.83;2.33;;;;;;;1.80;97.32;100476.78;5072238;28;20036;-34
2024/01/07 16:42:26;;;;;;;5.00;2.90;;;;;;;1.78;97.12;100497.09;5072422;28;20524;-35
2024/01/07 16:44:51;;;;;;;6.05;3.78;;;;;;;1.72;98.35;100494.91;5072256;28;20036;-37